Time;durP1;ratioP1;P1;durP2;ratioP2;P2;SDS_P1;SDS_P2;PMS_P1;PMS_P2;Temp;Humidity;BMP_temperature;BMP_pressure;BME280_temperature;BME280_humidity;BME280_pressure;Samples;Min_cycle;Max_cycle;Signal;HPM_P1;HPM_P2
2020/12/02 00:01:18;;;;;;;63.33;30.67;;;-2.40;90.60;;;;;;5019957;28;20835;-83
2020/12/02 00:03:54;;;;;;;43.80;20.43;;;-2.40;90.60;;;;;;5033174;28;20258;-82
2020/12/02 00:06:25;;;;;;;39.23;19.10;;;-2.40;90.70;;;;;;5033528;28;20214;-82
2020/12/02 00:08:58;;;;;;;45.13;19.63;;;-2.40;90.60;;;;;;5041609;28;20191;-81
2020/12/02 00:11:28;;;;;;;46.73;23.77;;;-2.40;90.60;;;;;;5038616;28;20247;-81
2020/12/02 00:13:58;;;;;;;32.73;17.67;;;-2.40;90.60;;;;;;5042560;28;20202;-82
2020/12/02 00:16:30;;;;;;;50.17;21.27;;;-2.50;90.60;;;;;;5018938;28;20358;-82
2020/12/02 00:18:59;;;;;;;54.03;26.63;;;-2.50;90.70;;;;;;5040317;28;20194;-84
2020/12/02 00:21:29;;;;;;;68.53;31.23;;;-2.50;90.70;;;;;;5037917;28;20677;-80
2020/12/02 00:23:57;;;;;;;74.73;33.73;;;-2.50;90.70;;;;;;5035690;28;20198;-81
2020/12/02 00:26:27;;;;;;;46.23;16.80;;;-2.50;90.70;;;;;;5035888;28;20585;-83
2020/12/02 00:28:56;;;;;;;43.53;19.00;;;-2.50;90.80;;;;;;5015558;28;20329;-81
2020/12/02 00:31:24;;;;;;;62.27;26.83;;;-2.50;90.80;;;;;;5014998;28;20603;-78
2020/12/02 00:33:52;;;;;;;70.40;31.87;;;-2.50;90.80;;;;;;5015953;28;20222;-82
2020/12/02 00:36:19;;;;;;;71.53;32.90;;;-2.60;90.80;;;;;;5012070;28;20322;-81
2020/12/02 00:38:47;;;;;;;71.03;34.13;;;-2.60;90.80;;;;;;5016190;28;20203;-82
2020/12/02 00:41:16;;;;;;;72.13;33.87;;;-2.60;90.80;;;;;;5017794;28;20249;-81
2020/12/02 00:43:44;;;;;;;66.13;28.23;;;-2.70;90.80;;;;;;5007781;28;20245;-81
2020/12/02 00:46:14;;;;;;;78.50;34.80;;;-2.70;90.80;;;;;;5005966;28;20257;-82
2020/12/02 00:48:50;;;;;;;59.97;26.70;;;-2.70;90.80;;;;;;5018003;28;20925;-83
2020/12/02 00:51:18;;;;;;;57.37;28.10;;;-2.70;90.80;;;;;;5000480;28;20206;-81
2020/12/02 00:53:45;;;;;;;69.13;33.13;;;-2.70;90.90;;;;;;5012722;28;20878;-81
2020/12/02 00:56:15;;;;;;;70.53;33.57;;;-2.80;90.90;;;;;;5012907;28;20195;-81
2020/12/02 00:58:51;;;;;;;57.87;26.93;;;-2.80;90.90;;;;;;5011780;28;20290;-82
2020/12/02 01:01:28;;;;;;;68.43;31.47;;;-2.80;90.90;;;;;;5007983;28;20203;-83
2020/12/02 01:03:58;;;;;;;64.77;32.27;;;-2.60;90.90;;;;;;5011375;28;20214;-79
2020/12/02 01:06:26;;;;;;;64.00;32.07;;;-2.90;90.90;;;;;;5008335;28;20229;-81
2020/12/02 01:08:55;;;;;;;70.70;31.57;;;-2.80;90.90;;;;;;5026892;28;20207;-81
2020/12/02 01:11:25;;;;;;;73.20;32.47;;;-2.90;90.90;;;;;;5038251;28;20191;-79
2020/12/02 01:13:57;;;;;;;75.73;33.43;;;-2.90;90.90;;;;;;5034667;28;20195;-81
2020/12/02 01:16:28;;;;;;;67.47;32.60;;;-2.90;91.00;;;;;;5025171;28;20213;-82
2020/12/02 01:18:57;;;;;;;73.77;33.00;;;-3.00;91.00;;;;;;5018483;28;20849;-81
2020/12/02 01:21:35;;;;;;;71.07;34.63;;;-3.00;90.90;;;;;;5007652;28;20206;-81
2020/12/02 01:24:07;;;;;;;72.27;35.93;;;-3.00;91.00;;;;;;5004097;28;20206;-80
2020/12/02 01:26:41;;;;;;;63.77;25.80;;;-3.10;91.00;;;;;;5015193;28;20246;-81
2020/12/02 01:29:16;;;;;;;57.50;27.47;;;-3.10;91.00;;;;;;5020808;28;20283;-80
2020/12/02 01:31:47;;;;;;;65.83;30.13;;;-3.10;91.00;;;;;;5005773;28;20206;-83
2020/12/02 01:34:15;;;;;;;74.53;33.77;;;-3.10;91.10;;;;;;5015251;28;20287;-82
2020/12/02 01:37:25;;;;;;;60.67;25.87;;;-3.10;91.10;;;;;;5007478;28;20205;-81
2020/12/02 01:39:58;;;;;;;62.10;29.27;;;-3.10;91.10;;;;;;4918096;29;20495;-80
2020/12/02 01:42:26;;;;;;;60.00;28.50;;;-3.10;91.00;;;;;;5006928;28;20220;-81
2020/12/02 01:44:55;;;;;;;67.60;31.53;;;-3.10;91.00;;;;;;5011237;28;20228;-81
2020/12/02 01:47:36;;;;;;;74.23;32.90;;;-3.20;91.00;;;;;;5014988;28;20260;-83
2020/12/02 01:50:07;;;;;;;66.37;30.97;;;-3.10;91.00;;;;;;5015591;28;21010;-81
2020/12/02 01:52:56;;;;;;;53.90;22.50;;;-3.20;90.90;;;;;;4998710;28;20508;-82
2020/12/02 01:55:30;;;;;;;61.73;27.73;;;-3.20;91.00;;;;;;5022719;28;20429;-84
2020/12/02 01:58:02;;;;;;;72.83;31.30;;;-3.20;91.00;;;;;;5018475;28;20363;-82
2020/12/02 02:00:36;;;;;;;60.17;28.50;;;-3.20;91.00;;;;;;5015168;28;20209;-80
2020/12/02 02:03:10;;;;;;;68.40;31.50;;;-3.30;91.00;;;;;;5006556;28;20611;-80
2020/12/02 02:05:48;;;;;;;46.30;22.33;;;-3.20;91.00;;;;;;5010788;28;20203;-80
2020/12/02 02:08:17;;;;;;;67.57;31.37;;;-3.20;91.00;;;;;;4999895;28;20219;-80
2020/12/02 02:10:47;;;;;;;27.53;13.83;;;-3.30;90.90;;;;;;5015795;28;20682;-80
2020/12/02 02:13:54;;;;;;;65.83;30.87;;;-3.30;90.90;;;;;;5012076;28;20490;-81
2020/12/02 02:16:26;;;;;;;62.77;28.80;;;-3.30;90.90;;;;;;5013541;28;20459;-79
2020/12/02 02:18:53;;;;;;;66.13;31.07;;;-3.40;90.90;;;;;;5013423;28;20957;-81
2020/12/02 02:21:24;;;;;;;63.33;29.30;;;-3.40;90.90;;;;;;5008990;28;20661;-80
2020/12/02 02:23:52;;;;;;;69.33;32.17;;;-3.40;91.00;;;;;;5013132;28;20984;-80
2020/12/02 02:26:28;;;;;;;68.87;31.17;;;-3.40;91.00;;;;;;5025114;28;20528;-81
2020/12/02 02:29:01;;;;;;;68.10;32.20;;;-3.40;91.00;;;;;;5026760;28;20730;-79
2020/12/02 02:31:29;;;;;;;60.47;28.07;;;-3.40;91.00;;;;;;5017104;28;21042;-81
2020/12/02 02:33:59;;;;;;;65.73;30.20;;;-3.50;90.90;;;;;;5018620;28;20462;-81
2020/12/02 02:36:28;;;;;;;67.73;31.50;;;-3.50;91.00;;;;;;5036757;28;20209;-80
2020/12/02 02:38:56;;;;;;;60.90;30.47;;;-3.40;91.00;;;;;;5035219;28;20200;-79
2020/12/02 02:41:28;;;;;;;54.23;26.30;;;-3.40;91.00;;;;;;5007995;28;20860;-79
2020/12/02 02:43:56;;;;;;;60.20;30.57;;;-3.40;91.00;;;;;;5028424;28;20299;-81
2020/12/02 02:46:24;;;;;;;59.83;29.40;;;-3.40;90.90;;;;;;5010051;28;20814;-80
2020/12/02 02:48:52;;;;;;;54.43;25.93;;;-3.50;90.80;;;;;;5000001;28;20223;-80
2020/12/02 02:51:20;;;;;;;60.93;28.80;;;-3.50;90.90;;;;;;5013390;28;20210;-80
2020/12/02 02:53:48;;;;;;;56.63;27.60;;;-3.50;90.90;;;;;;5008605;28;20465;-80
2020/12/02 02:56:16;;;;;;;59.03;28.50;;;-3.40;90.90;;;;;;5009048;28;20590;-80
2020/12/02 02:58:45;;;;;;;55.10;28.20;;;-3.30;90.80;;;;;;5009524;28;20476;-81
2020/12/02 03:01:13;;;;;;;58.10;27.83;;;-3.40;90.80;;;;;;5004750;28;20202;-83
2020/12/02 03:03:41;;;;;;;60.27;28.33;;;-3.40;90.70;;;;;;5014709;28;20666;-80
2020/12/02 03:06:09;;;;;;;55.17;26.43;;;-3.40;90.70;;;;;;5016531;28;20486;-80
2020/12/02 03:08:37;;;;;;;54.40;26.80;;;-3.40;90.70;;;;;;5010345;28;20480;-83
2020/12/02 03:11:09;;;;;;;52.37;26.20;;;-3.40;90.70;;;;;;5021380;28;20468;-81
2020/12/02 03:13:39;;;;;;;54.57;27.97;;;-3.30;90.70;;;;;;5003231;28;20201;-80
2020/12/02 03:16:21;;;;;;;52.90;25.63;;;-3.30;90.70;;;;;;5010010;28;21073;-81
2020/12/02 03:18:50;;;;;;;28.73;16.90;;;-3.20;90.60;;;;;;5010978;28;20621;-80
2020/12/02 03:21:21;;;;;;;46.83;25.03;;;-3.10;90.50;;;;;;5013147;28;20206;-81
2020/12/02 03:23:50;;;;;;;31.33;17.57;;;-3.00;90.20;;;;;;5013803;28;20816;-81
2020/12/02 03:26:20;;;;;;;46.17;23.23;;;-2.90;89.90;;;;;;5019406;28;20750;-80
2020/12/02 03:28:47;;;;;;;40.70;21.60;;;-2.90;89.80;;;;;;5010264;28;20658;-79
2020/12/02 03:31:19;;;;;;;46.27;23.80;;;-2.80;89.80;;;;;;5010499;28;20205;-81
2020/12/02 03:33:47;;;;;;;42.50;23.07;;;-2.80;89.60;;;;;;5006597;28;20248;-81
2020/12/02 03:36:18;;;;;;;44.63;22.63;;;-2.80;89.40;;;;;;5020917;28;20206;-81
2020/12/02 03:38:46;;;;;;;34.43;16.30;;;-2.80;89.50;;;;;;5024017;28;20217;-81
2020/12/02 03:41:15;;;;;;;29.63;15.60;;;-2.80;89.60;;;;;;5014965;28;20213;-80
2020/12/02 03:43:43;;;;;;;37.47;19.17;;;-2.80;89.10;;;;;;5021175;28;20740;-80
2020/12/02 03:46:11;;;;;;;39.33;20.60;;;-2.80;89.00;;;;;;5012685;28;20334;-79
2020/12/02 03:48:39;;;;;;;37.37;21.00;;;-2.70;89.10;;;;;;5017596;28;20205;-82
2020/12/02 03:51:07;;;;;;;39.73;20.87;;;-2.80;89.30;;;;;;5020092;28;20200;-81
2020/12/02 03:53:35;;;;;;;42.77;20.97;;;-2.70;89.20;;;;;;5013172;28;20245;-80
2020/12/02 03:56:02;;;;;;;41.77;20.93;;;-2.80;88.80;;;;;;5014719;28;20209;-81
2020/12/02 03:58:30;;;;;;;42.90;22.10;;;-2.70;88.70;;;;;;5020230;28;20210;-78
2020/12/02 04:00:59;;;;;;;39.10;22.40;;;-2.70;88.70;;;;;;5017006;28;20253;-79
2020/12/02 04:03:26;;;;;;;40.67;22.10;;;-2.60;88.60;;;;;;5035136;28;20443;-81
2020/12/02 04:05:55;;;;;;;39.27;20.97;;;-2.60;88.60;;;;;;5037313;28;20477;-80
2020/12/02 04:08:23;;;;;;;36.23;20.47;;;-2.60;88.50;;;;;;5017785;28;20628;-81
2020/12/02 04:10:53;;;;;;;38.70;21.57;;;-2.60;88.50;;;;;;5012427;28;20843;-80
2020/12/02 04:13:20;;;;;;;38.97;20.50;;;-2.60;88.30;;;;;;5002004;28;20731;-83
2020/12/02 04:15:48;;;;;;;38.30;21.43;;;-2.60;88.20;;;;;;5010325;28;20211;-83
2020/12/02 04:18:15;;;;;;;37.43;20.80;;;-2.60;88.10;;;;;;5003547;28;20516;-80
2020/12/02 04:20:47;;;;;;;32.50;20.03;;;-2.60;88.10;;;;;;5008278;28;20246;-82
2020/12/02 04:23:15;;;;;;;26.07;13.43;;;-2.60;87.90;;;;;;5014160;28;20229;-78
2020/12/02 04:25:43;;;;;;;42.17;21.50;;;-2.50;87.80;;;;;;5008183;28;20218;-82
2020/12/02 04:28:10;;;;;;;37.10;20.83;;;-2.50;87.70;;;;;;5016502;28;20246;-81
2020/12/02 04:30:38;;;;;;;36.70;20.87;;;-2.50;87.60;;;;;;5012282;28;20256;-82
2020/12/02 04:33:06;;;;;;;36.07;20.23;;;-2.50;87.60;;;;;;5015796;28;20202;-80
2020/12/02 04:35:36;;;;;;;36.70;20.43;;;-2.50;87.40;;;;;;5010967;28;20195;-79
2020/12/02 04:38:04;;;;;;;36.40;20.90;;;-2.40;87.40;;;;;;4997274;28;20836;-80
2020/12/02 04:40:35;;;;;;;37.03;19.30;;;-2.40;87.40;;;;;;5012116;28;20774;-81
2020/12/02 04:43:10;;;;;;;32.83;18.90;;;-2.40;87.40;;;;;;5015831;28;20203;-81
2020/12/02 04:45:38;;;;;;;34.33;18.93;;;-2.30;87.30;;;;;;4996555;28;20650;-82
2020/12/02 04:48:11;;;;;;;33.77;19.10;;;-2.30;87.10;;;;;;5012626;28;20246;-81
2020/12/02 04:50:39;;;;;;;31.77;19.27;;;-2.10;87.30;;;;;;4999209;28;20206;-81
2020/12/02 04:53:13;;;;;;;38.80;20.93;;;-2.20;87.00;;;;;;4994404;28;20786;-82
2020/12/02 04:55:44;;;;;;;33.53;19.07;;;-2.20;87.10;;;;;;5012517;28;20218;-81
2020/12/02 04:58:31;;;;;;;35.30;20.00;;;-2.20;87.00;;;;;;5012294;28;20210;-79
2020/12/02 05:01:16;;;;;;;32.63;19.80;;;-2.00;87.00;;;;;;5019530;28;20207;-81
2020/12/02 05:03:52;;;;;;;40.87;19.77;;;-2.10;87.00;;;;;;5025705;28;20662;-81
2020/12/02 05:06:25;;;;;;;34.00;19.83;;;-2.10;87.00;;;;;;5008492;28;20198;-81
2020/12/02 05:09:07;;;;;;;38.40;20.67;;;-2.10;87.30;;;;;;5013898;28;20273;-81
2020/12/02 05:11:36;;;;;;;33.73;18.80;;;-2.10;87.30;;;;;;5011199;28;20904;-81
2020/12/02 05:14:07;;;;;;;32.80;19.40;;;-2.00;87.20;;;;;;5018700;28;20688;-79
2020/12/02 05:16:34;;;;;;;37.80;18.73;;;-2.00;87.10;;;;;;5010584;28;20677;-81
2020/12/02 05:19:04;;;;;;;33.13;19.20;;;-2.00;87.30;;;;;;5010969;28;20206;-80
2020/12/02 05:21:40;;;;;;;36.30;20.47;;;-1.80;87.20;;;;;;5017527;28;20716;-80
2020/12/02 05:24:12;;;;;;;35.67;19.60;;;-2.00;87.00;;;;;;5012803;28;20241;-80
2020/12/02 05:26:44;;;;;;;35.10;19.43;;;-2.00;87.00;;;;;;5024551;28;20226;-80
2020/12/02 05:29:33;;;;;;;37.83;20.73;;;-1.90;86.90;;;;;;5026123;28;20473;-81
2020/12/02 05:32:04;;;;;;;33.53;19.57;;;-1.90;86.80;;;;;;5034218;28;20229;-83
2020/12/02 05:34:34;;;;;;;34.70;21.00;;;-1.90;86.90;;;;;;5032110;28;20265;-81
2020/12/02 05:37:08;;;;;;;34.47;19.47;;;-1.90;86.60;;;;;;5013761;28;20221;-80
2020/12/02 05:39:46;;;;;;;33.73;19.47;;;-1.90;86.90;;;;;;5016909;28;20218;-80
2020/12/02 05:42:25;;;;;;;32.63;19.17;;;-1.80;86.80;;;;;;5005166;28;20203;-81
2020/12/02 05:45:01;;;;;;;34.17;20.90;;;-1.80;86.70;;;;;;5006615;28;20213;-80
2020/12/02 05:47:29;;;;;;;33.07;19.20;;;-1.80;86.80;;;;;;5007202;28;20230;-81
2020/12/02 05:49:58;;;;;;;32.40;18.57;;;-1.80;86.80;;;;;;5010948;28;20741;-82
2020/12/02 05:52:32;;;;;;;34.90;20.53;;;-1.80;86.80;;;;;;5016999;28;20255;-82
2020/12/02 05:55:06;;;;;;;34.97;19.13;;;-1.80;86.40;;;;;;5004286;28;20728;-79
2020/12/02 05:57:40;;;;;;;33.23;19.20;;;-1.80;86.20;;;;;;5010619;28;20681;-80
2020/12/02 06:00:10;;;;;;;30.67;17.77;;;-1.80;86.00;;;;;;5006612;28;20669;-81
2020/12/02 06:02:38;;;;;;;32.13;18.67;;;-1.80;86.00;;;;;;5006092;28;20214;-81
2020/12/02 06:05:11;;;;;;;35.43;18.13;;;-1.80;86.00;;;;;;5009884;28;20202;-82
2020/12/02 06:07:47;;;;;;;32.40;18.27;;;-1.80;85.70;;;;;;5027090;28;20781;-81
2020/12/02 06:10:16;;;;;;;33.63;18.43;;;-1.80;85.80;;;;;;5034202;28;20187;-80
2020/12/02 06:12:45;;;;;;;30.97;17.67;;;-1.80;85.90;;;;;;5034647;28;20202;-81
2020/12/02 06:15:23;;;;;;;20.60;12.80;;;-1.80;85.80;;;;;;5024775;28;20273;-80
2020/12/02 06:18:11;;;;;;;32.50;18.97;;;-1.70;85.80;;;;;;5011251;28;20217;-83
2020/12/02 06:20:45;;;;;;;34.27;19.50;;;-1.60;85.90;;;;;;5008993;28;21118;-80
2020/12/02 06:23:12;;;;;;;33.70;19.03;;;-1.70;86.00;;;;;;5029396;28;20198;-80
2020/12/02 06:25:45;;;;;;;31.13;17.13;;;-1.70;85.90;;;;;;5029364;28;20214;-81
2020/12/02 06:28:20;;;;;;;32.97;20.20;;;-1.70;85.70;;;;;;5011135;28;20723;-79
2020/12/02 06:30:56;;;;;;;27.23;17.77;;;-1.70;85.70;;;;;;5007900;28;20970;-78
2020/12/02 06:33:31;;;;;;;33.97;20.03;;;-1.70;85.60;;;;;;5002237;28;20210;-81
2020/12/02 06:36:14;;;;;;;34.63;20.50;;;-1.70;85.60;;;;;;5002158;28;20665;-80
2020/12/02 06:38:42;;;;;;;32.40;18.67;;;-1.70;85.70;;;;;;5002417;28;20378;-82
2020/12/02 06:41:34;;;;;;;34.60;19.73;;;-1.70;85.40;;;;;;4998099;28;20444;-81
2020/12/02 06:44:44;;;;;;;35.90;20.10;;;-1.70;85.30;;;;;;4996070;28;20587;-78
2020/12/02 06:47:26;;;;;;;31.20;18.03;;;-1.70;85.50;;;;;;4993314;28;20230;-77
2020/12/02 06:49:58;;;;;;;30.87;17.83;;;-1.60;85.30;;;;;;4996743;28;20206;-80
2020/12/02 06:52:30;;;;;;;31.60;19.63;;;-1.60;85.50;;;;;;5004548;28;20457;-78
2020/12/02 06:55:04;;;;;;;32.00;19.70;;;-1.60;85.50;;;;;;5010011;28;20207;-80
2020/12/02 06:57:31;;;;;;;37.03;21.27;;;-1.60;85.50;;;;;;5024546;28;20464;-77
2020/12/02 07:00:00;;;;;;;36.70;20.73;;;-1.50;85.50;;;;;;5019905;28;20530;-81
2020/12/02 07:02:39;;;;;;;33.77;20.17;;;-1.50;85.60;;;;;;4999641;28;20199;-80
2020/12/02 07:05:11;;;;;;;26.80;16.97;;;-1.60;85.50;;;;;;5006993;28;20207;-78
2020/12/02 07:07:39;;;;;;;34.40;20.07;;;-1.40;85.30;;;;;;5003596;28;20235;-80
2020/12/02 07:10:16;;;;;;;33.57;20.17;;;-1.60;85.20;;;;;;4992446;28;21018;-80
2020/12/02 07:12:45;;;;;;;35.80;20.37;;;-1.50;85.40;;;;;;4994687;28;20767;-82
2020/12/02 07:15:15;;;;;;;36.10;21.47;;;-1.50;85.40;;;;;;4990732;28;20509;-79
2020/12/02 07:17:44;;;;;;;34.97;19.77;;;-1.50;85.20;;;;;;4991662;28;20434;-77
2020/12/02 07:20:15;;;;;;;34.70;20.43;;;-1.50;85.20;;;;;;4991656;28;20223;-79
2020/12/02 07:22:50;;;;;;;34.80;20.97;;;-1.50;85.30;;;;;;4999553;28;20206;-81
2020/12/02 07:25:24;;;;;;;38.33;20.50;;;-1.50;85.30;;;;;;4997009;28;20306;-80
2020/12/02 07:27:51;;;;;;;35.40;20.63;;;-1.50;85.10;;;;;;5003994;28;20661;-78
2020/12/02 07:30:35;;;;;;;36.77;20.07;;;-1.50;85.10;;;;;;4991768;28;20264;-80
2020/12/02 07:33:19;;;;;;;35.50;21.83;;;-1.40;85.10;;;;;;4994375;28;20207;-81
2020/12/02 07:36:01;;;;;;;33.23;20.80;;;-1.40;85.00;;;;;;4998449;28;20203;-79
2020/12/02 07:38:29;;;;;;;33.20;20.07;;;-1.40;85.10;;;;;;4993368;28;20373;-78
2020/12/02 07:41:13;;;;;;;35.47;20.73;;;-1.30;85.30;;;;;;4995743;28;20556;-79
2020/12/02 07:43:45;;;;;;;36.17;21.20;;;-1.30;85.20;;;;;;4997422;28;21114;-81
2020/12/02 07:46:14;;;;;;;36.57;20.80;;;-1.30;85.10;;;;;;4993801;28;20202;-79
2020/12/02 07:48:52;;;;;;;38.53;22.87;;;-1.30;84.70;;;;;;4989462;28;20342;-79
2020/12/02 07:51:24;;;;;;;36.70;20.63;;;-1.30;84.90;;;;;;4964665;28;20440;-77
2020/12/02 07:53:55;;;;;;;33.73;20.70;;;-1.30;84.90;;;;;;4995343;28;20623;-78
2020/12/02 07:56:28;;;;;;;33.10;20.57;;;-1.30;84.40;;;;;;4990553;28;20214;-78
2020/12/02 07:59:03;;;;;;;35.47;20.90;;;-1.20;84.50;;;;;;4999196;28;20443;-82
2020/12/02 08:02:09;;;;;;;35.70;21.10;;;-1.40;84.40;;;;;;4995946;28;20626;-78
2020/12/02 08:04:52;;;;;;;37.40;21.67;;;-1.40;84.50;;;;;;4961479;28;20210;-79
2020/12/02 08:07:20;;;;;;;37.27;21.00;;;-1.30;84.80;;;;;;4985675;28;20231;-78
2020/12/02 08:09:51;;;;;;;34.13;20.57;;;-1.30;84.70;;;;;;4985318;28;20210;-78
2020/12/02 08:12:27;;;;;;;35.53;21.70;;;-1.30;84.50;;;;;;4981338;28;20203;-82
2020/12/02 08:15:02;;;;;;;36.70;21.37;;;-1.30;84.70;;;;;;4999810;28;20868;-81
2020/12/02 08:17:30;;;;;;;34.60;20.57;;;-1.30;84.60;;;;;;4987890;28;20867;-80
2020/12/02 08:19:59;;;;;;;36.17;21.13;;;-1.30;84.50;;;;;;4994715;28;20732;-81
2020/12/02 08:22:39;;;;;;;33.20;20.90;;;-1.30;84.50;;;;;;4990316;28;20218;-82
2020/12/02 08:25:20;;;;;;;36.10;20.07;;;-1.20;84.60;;;;;;5003520;28;20199;-78
2020/12/02 08:27:49;;;;;;;34.60;19.73;;;-1.20;84.10;;;;;;4992780;28;20353;-77
2020/12/02 08:30:21;;;;;;;29.07;18.60;;;-1.30;84.10;;;;;;4985719;28;20269;-80
2020/12/02 08:32:55;;;;;;;30.77;19.80;;;-1.30;83.90;;;;;;4991754;28;20319;-78
2020/12/02 08:35:30;;;;;;;32.60;20.50;;;-1.30;84.00;;;;;;4989351;28;20206;-82
2020/12/02 08:38:00;;;;;;;31.53;18.67;;;-1.30;84.20;;;;;;4991649;28;20527;-80
2020/12/02 08:40:44;;;;;;;30.47;18.90;;;-1.30;84.20;;;;;;4994194;28;20202;-80
2020/12/02 08:43:23;;;;;;;34.70;19.70;;;-1.30;83.90;;;;;;4991394;28;20317;-79
2020/12/02 08:46:20;;;;;;;33.13;19.70;;;-1.20;84.10;;;;;;4994075;28;20434;-80
2020/12/02 08:48:51;;;;;;;32.67;20.73;;;-1.20;84.10;;;;;;4989335;28;20233;-79
2020/12/02 08:51:21;;;;;;;31.93;20.93;;;-1.10;84.20;;;;;;4994211;28;20758;-80
2020/12/02 08:53:50;;;;;;;31.20;19.27;;;-1.10;84.20;;;;;;4988430;28;20352;-80
2020/12/02 08:56:31;;;;;;;31.30;19.90;;;-1.10;83.90;;;;;;5001529;28;20365;-79
2020/12/02 08:59:00;;;;;;;29.70;18.53;;;-1.10;83.60;;;;;;5011872;28;20261;-81
2020/12/02 09:01:28;;;;;;;34.00;19.53;;;-1.10;83.60;;;;;;4996311;28;20729;-79
2020/12/02 09:03:55;;;;;;;31.03;19.23;;;-1.00;83.80;;;;;;5002250;28;20234;-79
2020/12/02 09:06:23;;;;;;;31.30;18.67;;;-1.10;83.60;;;;;;5012077;28;20200;-80
2020/12/02 09:08:52;;;;;;;31.17;19.07;;;-1.10;83.30;;;;;;4996813;28;20570;-80
2020/12/02 09:11:24;;;;;;;34.23;20.47;;;-1.10;83.60;;;;;;4987300;28;20203;-80
2020/12/02 09:13:53;;;;;;;29.93;18.53;;;-1.10;83.60;;;;;;4991004;28;20205;-79
2020/12/02 09:16:24;;;;;;;33.93;19.60;;;-1.10;83.70;;;;;;4989702;28;20348;-79
2020/12/02 09:18:52;;;;;;;31.40;18.63;;;-1.10;83.40;;;;;;4986397;28;20203;-77
2020/12/02 09:21:20;;;;;;;32.87;19.30;;;-1.10;83.50;;;;;;4991954;28;20209;-79
2020/12/02 09:23:48;;;;;;;26.53;15.17;;;-1.00;83.40;;;;;;4996876;28;20383;-81
2020/12/02 09:26:18;;;;;;;26.47;17.03;;;-1.10;83.10;;;;;;4994671;28;20208;-79
2020/12/02 09:28:46;;;;;;;30.77;18.97;;;-1.00;83.30;;;;;;4984023;28;20235;-76
2020/12/02 09:31:15;;;;;;;31.00;19.37;;;-0.90;83.50;;;;;;4993555;28;20752;-80
2020/12/02 09:33:42;;;;;;;29.77;19.07;;;-0.90;83.60;;;;;;4989784;28;20377;-79
2020/12/02 09:36:10;;;;;;;26.37;17.70;;;-0.90;83.20;;;;;;4982083;28;20829;-81
2020/12/02 09:38:39;;;;;;;31.40;19.27;;;-0.90;83.10;;;;;;4988355;28;20281;-82
2020/12/02 09:41:28;;;;;;;28.53;18.70;;;-0.90;83.20;;;;;;4987686;28;20566;-81
2020/12/02 09:44:14;;;;;;;32.27;17.77;;;-0.90;83.20;;;;;;4983270;28;20747;-82
2020/12/02 09:46:44;;;;;;;29.93;17.87;;;-0.80;83.00;;;;;;4996593;28;20199;-81
2020/12/02 09:49:13;;;;;;;29.77;17.80;;;-0.80;82.80;;;;;;5013501;28;20337;-79
2020/12/02 09:51:41;;;;;;;27.63;18.57;;;-0.80;82.40;;;;;;5008223;28;20393;-80
2020/12/02 09:54:11;;;;;;;28.93;18.07;;;-0.90;82.40;;;;;;5003926;28;20274;-80
2020/12/02 09:56:42;;;;;;;29.77;17.80;;;-0.90;82.30;;;;;;5008495;28;20253;-79
2020/12/02 09:59:11;;;;;;;26.83;17.10;;;-0.80;82.50;;;;;;4989120;28;20555;-77
2020/12/02 10:01:54;;;;;;;30.33;18.67;;;-0.80;82.50;;;;;;4996661;28;20207;-80
2020/12/02 10:04:41;;;;;;;26.63;17.30;;;-0.80;82.30;;;;;;4995116;28;20538;-78
2020/12/02 10:07:34;;;;;;;28.87;17.67;;;-0.80;82.10;;;;;;5001544;28;20226;-79
2020/12/02 10:10:29;;;;;;;30.50;18.93;;;-0.80;82.10;;;;;;4999955;28;20205;-80
2020/12/02 10:13:18;;;;;;;29.47;18.00;;;-0.70;82.30;;;;;;4996052;28;20243;-83
2020/12/02 10:16:00;;;;;;;28.87;18.07;;;-0.70;82.20;;;;;;5003078;28;20246;-82
2020/12/02 10:18:56;;;;;;;27.07;17.33;;;-0.60;82.30;;;;;;4997262;28;20261;-80
2020/12/02 10:21:50;;;;;;;27.03;18.30;;;-0.60;82.10;;;;;;5007171;28;20208;-79
2020/12/02 10:24:33;;;;;;;29.37;18.57;;;-0.60;82.10;;;;;;4997552;28;20226;-80
2020/12/02 10:27:17;;;;;;;26.93;17.40;;;-0.60;81.90;;;;;;5004593;28;20216;-80
2020/12/02 10:30:01;;;;;;;25.23;17.90;;;-0.50;81.80;;;;;;4992320;28;20212;-78
2020/12/02 10:32:57;;;;;;;28.07;16.23;;;-0.60;81.80;;;;;;4995859;28;20200;-79
2020/12/02 10:35:28;;;;;;;28.20;17.77;;;-0.60;81.70;;;;;;5002466;28;20312;-78
2020/12/02 10:38:04;;;;;;;25.60;16.70;;;-0.70;81.70;;;;;;4987044;28;20210;-81
2020/12/02 10:40:39;;;;;;;28.27;18.47;;;-0.60;81.80;;;;;;4982428;28;20651;-78
2020/12/02 10:43:18;;;;;;;44.00;20.17;;;-0.50;82.00;;;;;;4985376;28;20219;-78
2020/12/02 10:45:50;;;;;;;29.73;19.00;;;-0.50;82.00;;;;;;4992254;28;20558;-84
2020/12/02 10:48:33;;;;;;;28.80;18.90;;;-0.40;82.30;;;;;;4993472;28;20440;-81
2020/12/02 10:51:05;;;;;;;29.30;19.40;;;-0.30;81.50;;;;;;4986373;28;20209;-83
2020/12/02 10:53:33;;;;;;;26.20;17.63;;;-0.30;81.30;;;;;;4989500;28;20211;-79
2020/12/02 10:56:00;;;;;;;32.17;17.73;;;-0.30;81.50;;;;;;4982873;28;20921;-79
2020/12/02 10:58:29;;;;;;;25.03;18.20;;;-0.30;81.40;;;;;;4993910;28;20229;-80
2020/12/02 11:00:59;;;;;;;30.20;18.47;;;-0.30;81.20;;;;;;4965688;28;20538;-81
2020/12/02 11:03:30;;;;;;;27.67;18.27;;;-0.30;81.20;;;;;;4979684;28;20216;-82
2020/12/02 11:06:24;;;;;;;29.10;17.00;;;-0.20;81.30;;;;;;4985397;28;20207;-81
2020/12/02 11:09:14;;;;;;;24.90;16.77;;;-0.20;81.00;;;;;;4987114;28;20993;-82
2020/12/02 11:11:58;;;;;;;29.10;18.37;;;-0.20;81.10;;;;;;4988430;28;20791;-78
2020/12/02 11:14:46;;;;;;;31.37;18.23;;;-0.20;81.30;;;;;;5009605;28;20529;-79
2020/12/02 11:17:22;;;;;;;25.57;18.30;;;-0.20;81.40;;;;;;5010337;28;20454;-80
2020/12/02 11:19:53;;;;;;;26.83;17.97;;;-0.20;81.70;;;;;;5007191;28;20665;-81
2020/12/02 11:22:45;;;;;;;28.47;19.87;;;-0.10;81.40;;;;;;5000439;28;20219;-77
2020/12/02 11:25:16;;;;;;;25.23;17.17;;;-0.30;81.20;;;;;;4984690;28;20558;-78
2020/12/02 11:27:45;;;;;;;27.37;18.87;;;-0.20;81.00;;;;;;4998985;28;20200;-77
2020/12/02 11:30:17;;;;;;;29.33;18.93;;;-0.20;81.00;;;;;;4993804;28;20752;-79
2020/12/02 11:33:26;;;;;;;31.50;19.30;;;-0.20;81.00;;;;;;5003366;28;20230;-78
2020/12/02 11:36:33;;;;;;;27.57;18.60;;;-0.20;81.20;;;;;;5001054;28;20485;-82
2020/12/02 11:39:10;;;;;;;25.80;17.77;;;-0.20;81.30;;;;;;4998321;28;20703;-81
2020/12/02 11:41:46;;;;;;;33.70;20.97;;;-0.10;81.20;;;;;;4985027;28;20221;-79
2020/12/02 11:44:22;;;;;;;27.77;18.73;;;-0.20;81.30;;;;;;4985717;28;20278;-79
2020/12/02 11:46:57;;;;;;;30.47;19.87;;;-0.10;81.20;;;;;;4987895;28;20666;-80
2020/12/02 11:49:34;;;;;;;29.07;17.33;;;-0.10;81.10;;;;;;4990630;28;21318;-82
2020/12/02 11:52:12;;;;;;;30.70;19.90;;;-0.10;80.90;;;;;;4990842;28;20762;-80
2020/12/02 11:54:41;;;;;;;27.87;19.47;;;-0.10;80.90;;;;;;4988423;28;20548;-80
2020/12/02 11:57:10;;;;;;;27.43;19.80;;;-0.20;81.00;;;;;;4992015;28;20201;-80
2020/12/02 11:59:38;;;;;;;30.47;20.20;;;-0.20;80.90;;;;;;4993048;28;20254;-80
2020/12/02 12:02:34;;;;;;;36.77;20.87;;;-0.20;81.00;;;;;;4995770;28;20200;-81
2020/12/02 12:05:16;;;;;;;31.43;20.37;;;-0.10;81.00;;;;;;5005786;28;20185;-81
2020/12/02 12:07:57;;;;;;;34.07;20.87;;;-0.10;80.90;;;;;;5021739;28;20195;-80
2020/12/02 12:10:31;;;;;;;33.93;21.53;;;-0.10;80.90;;;;;;5016891;28;20370;-80
2020/12/02 12:13:10;;;;;;;36.57;22.47;;;-0.20;80.80;;;;;;5019020;28;20203;-81
2020/12/02 12:15:40;;;;;;;37.50;22.17;;;-0.20;81.10;;;;;;5017350;28;20219;-81
2020/12/02 12:18:17;;;;;;;39.53;23.23;;;-0.30;80.90;;;;;;5013317;28;20259;-82
2020/12/02 12:20:54;;;;;;;37.30;22.53;;;-0.30;81.00;;;;;;5006092;28;20251;-81
2020/12/02 12:23:43;;;;;;;39.27;22.23;;;-0.30;81.20;;;;;;4997989;28;20200;-81
2020/12/02 12:26:12;;;;;;;38.60;23.00;;;-0.30;81.00;;;;;;5009065;28;20205;-81
2020/12/02 12:28:42;;;;;;;39.33;23.40;;;-0.30;81.10;;;;;;4997417;28;21019;-79
2020/12/02 12:31:17;;;;;;;42.57;24.63;;;-0.30;81.20;;;;;;4998077;28;20199;-80
2020/12/02 12:33:55;;;;;;;41.03;24.77;;;-0.50;81.10;;;;;;4993338;28;20294;-79
2020/12/02 12:36:24;;;;;;;38.87;22.53;;;-0.40;81.20;;;;;;5000252;28;20203;-79
2020/12/02 12:38:57;;;;;;;40.00;23.33;;;-0.40;81.40;;;;;;4999478;28;20227;-79
2020/12/02 12:41:31;;;;;;;44.07;24.27;;;-0.50;81.30;;;;;;5011645;28;20191;-81
2020/12/02 12:44:03;;;;;;;41.10;24.20;;;-0.50;81.50;;;;;;5008486;28;20221;-79
2020/12/02 12:46:39;;;;;;;40.23;24.27;;;-0.40;81.80;;;;;;4999989;28;20207;-81
2020/12/02 12:49:11;;;;;;;35.30;22.17;;;-0.40;81.60;;;;;;5009542;28;20218;-80
2020/12/02 12:51:40;;;;;;;40.77;23.33;;;-0.40;81.70;;;;;;5010644;28;20522;-83
2020/12/02 12:54:14;;;;;;;40.67;23.73;;;-0.30;81.70;;;;;;4989747;28;20231;-83
2020/12/02 12:56:44;;;;;;;39.63;22.83;;;-0.40;81.50;;;;;;4991155;28;20237;-82
2020/12/02 12:59:16;;;;;;;36.73;22.13;;;-0.30;81.80;;;;;;5002752;28;20710;-81
2020/12/02 13:01:46;;;;;;;37.90;21.80;;;-0.30;81.70;;;;;;4993364;28;20230;-81